Time;durP1;ratioP1;P1;durP2;ratioP2;P2;SDS_P1;SDS_P2;PMS_P1;PMS_P2;Temp;Humidity;BMP_temperature;BMP_pressure;BME280_temperature;BME280_humidity;BME280_pressure;Samples;Min_cycle;Max_cycle;Signal;HPM_P1;HPM_P2
2022/10/30 00:02:21;;;;;;;3.77;1.67;;;;;;;;;;5031109;28;20202;-67
2022/10/30 00:04:48;;;;;;;4.10;1.87;;;;;;;;;;5031557;28;20179;-67
2022/10/30 00:07:15;;;;;;;6.87;2.10;;;;;;;;;;5031275;28;20219;-67
2022/10/30 00:09:41;;;;;;;8.13;1.83;;;;;;;;;;5031292;28;20302;-67
2022/10/30 00:12:08;;;;;;;3.90;1.80;;;;;;;;;;5031202;28;20192;-67
2022/10/30 00:14:34;;;;;;;5.37;2.43;;;;;;;;;;5031372;28;20192;-67
2022/10/30 00:17:01;;;;;;;6.57;1.50;;;;;;;;;;5039509;28;20940;-67
2022/10/30 00:19:28;;;;;;;3.40;1.60;;;;;;;;;;5051111;28;20523;-67
2022/10/30 00:21:56;;;;;;;3.73;1.50;;;;;;;;;;5051170;28;20228;-67
2022/10/30 00:24:22;;;;;;;4.43;1.60;;;;;;;;;;5050802;28;20177;-67
2022/10/30 00:26:48;;;;;;;5.57;2.13;;;;;;;;;;5049695;28;20260;-67
2022/10/30 00:29:15;;;;;;;6.57;1.90;;;;;;;;;;5051246;28;20739;-67
2022/10/30 00:31:41;;;;;;;5.23;1.90;;;;;;;;;;5051185;28;20206;-67
2022/10/30 00:34:08;;;;;;;4.40;1.80;;;;;;;;;;5050729;28;20202;-67
2022/10/30 00:36:34;;;;;;;5.27;1.90;;;;;;;;;;5050365;28;20873;-67
2022/10/30 00:39:02;;;;;;;9.63;1.90;;;;;;;;;;5040956;28;20935;-67
2022/10/30 00:41:29;;;;;;;5.80;2.20;;;;;;;;;;5030703;28;20278;-67
2022/10/30 00:43:55;;;;;;;8.03;1.80;;;;;;;;;;5029768;28;20249;-67
2022/10/30 00:46:28;;;;;;;7.37;2.10;;;;;;;;;;5030430;28;20207;-67
2022/10/30 00:48:55;;;;;;;7.00;2.27;;;;;;;;;;5030497;28;20255;-67
2022/10/30 00:51:22;;;;;;;9.50;2.50;;;;;;;;;;5030159;28;20566;-67
2022/10/30 00:53:49;;;;;;;6.33;1.60;;;;;;;;;;5030121;28;20188;-67
2022/10/30 00:56:16;;;;;;;5.57;2.07;;;;;;;;;;5029235;28;20227;-67
2022/10/30 00:58:46;;;;;;;5.77;2.07;;;;;;;;;;5045962;28;20647;-67
2022/10/30 01:01:14;;;;;;;8.23;2.13;;;;;;;;;;5049542;28;20187;-67
2022/10/30 01:03:41;;;;;;;8.90;2.07;;;;;;;;;;5048959;28;20179;-67
2022/10/30 01:06:09;;;;;;;5.40;2.30;;;;;;;;;;5050194;28;20325;-67
2022/10/30 01:08:36;;;;;;;4.40;1.73;;;;;;;;;;5048778;28;20297;-67
2022/10/30 01:11:03;;;;;;;4.83;2.33;;;;;;;;;;5032714;28;20191;-67
2022/10/30 01:13:30;;;;;;;5.60;1.97;;;;;;;;;;5048572;28;20191;-67
2022/10/30 01:16:05;;;;;;;6.67;2.07;;;;;;;;;;5048910;28;20203;-67
2022/10/30 01:18:48;;;;;;;8.10;2.33;;;;;;;;;;5048692;28;20218;-67
2022/10/30 01:21:20;;;;;;;5.77;2.07;;;;;;;;;;5050143;28;20201;-67
2022/10/30 01:23:47;;;;;;;6.90;2.00;;;;;;;;;;5029124;28;20246;-67
2022/10/30 01:26:17;;;;;;;7.27;2.20;;;;;;;;;;5028660;28;20211;-66
2022/10/30 01:28:53;;;;;;;4.87;2.03;;;;;;;;;;5028873;28;20202;-67
2022/10/30 01:31:22;;;;;;;7.30;1.87;;;;;;;;;;5028629;28;20203;-67
2022/10/30 01:33:57;;;;;;;6.57;2.03;;;;;;;;;;5029954;28;20187;-67
2022/10/30 01:36:29;;;;;;;6.27;2.03;;;;;;;;;;5028049;28;20305;-67
2022/10/30 01:38:57;;;;;;;9.43;1.80;;;;;;;;;;5029192;28;20205;-67
2022/10/30 01:41:25;;;;;;;7.43;2.20;;;;;;;;;;5028244;28;20203;-67
2022/10/30 01:43:57;;;;;;;7.20;2.47;;;;;;;;;;5028726;28;20199;-67
2022/10/30 01:46:26;;;;;;;6.97;2.03;;;;;;;;;;5028068;28;20213;-67
2022/10/30 01:49:02;;;;;;;6.67;1.90;;;;;;;;;;5027303;28;20239;-67
2022/10/30 01:51:33;;;;;;;6.30;2.33;;;;;;;;;;5028147;28;20253;-67
2022/10/30 01:54:12;;;;;;;7.57;2.17;;;;;;;;;;5028161;28;20191;-67
2022/10/30 01:56:42;;;;;;;6.50;2.60;;;;;;;;;;5028456;28;20226;-67
2022/10/30 01:59:13;;;;;;;3.87;2.10;;;;;;;;;;5028313;28;20211;-67
2022/10/30 02:01:40;;;;;;;4.70;2.10;;;;;;;;;;5028373;28;20195;-67
2022/10/30 02:04:07;;;;;;;5.27;2.20;;;;;;;;;;5053756;28;20681;-68
2022/10/30 02:06:34;;;;;;;5.63;1.90;;;;;;;;;;5047988;28;20249;-67
2022/10/30 02:09:01;;;;;;;6.50;2.47;;;;;;;;;;5047967;28;20196;-67
2022/10/30 02:11:28;;;;;;;6.07;2.10;;;;;;;;;;5047831;28;20198;-67
2022/10/30 02:13:55;;;;;;;4.30;2.33;;;;;;;;;;5048397;28;20195;-67
2022/10/30 02:16:22;;;;;;;7.07;2.20;;;;;;;;;;5047645;28;20285;-67
2022/10/30 02:18:48;;;;;;;6.53;2.00;;;;;;;;;;5049011;28;20211;-67
2022/10/30 02:21:15;;;;;;;6.27;1.97;;;;;;;;;;5047958;28;20202;-67
2022/10/30 02:23:42;;;;;;;4.67;2.10;;;;;;;;;;5043397;28;20195;-67
2022/10/30 02:26:08;;;;;;;8.07;2.07;;;;;;;;;;5027944;28;20222;-67
2022/10/30 02:28:35;;;;;;;5.87;1.90;;;;;;;;;;5029167;28;20218;-67
2022/10/30 02:31:02;;;;;;;5.73;2.07;;;;;;;;;;5028025;28;20195;-67
2022/10/30 02:33:28;;;;;;;5.17;2.43;;;;;;;;;;5029109;28;20195;-67
2022/10/30 02:35:55;;;;;;;4.50;2.10;;;;;;;;;;5027835;28;20258;-66
2022/10/30 02:38:21;;;;;;;9.03;2.30;;;;;;;;;;5027540;28;20202;-67
2022/10/30 02:40:49;;;;;;;6.30;2.07;;;;;;;;;;5027397;28;20203;-67
2022/10/30 02:43:15;;;;;;;4.67;2.07;;;;;;;;;;5027754;28;20195;-67
2022/10/30 02:45:42;;;;;;;8.30;2.70;;;;;;;;;;5027489;28;20199;-67
2022/10/30 02:48:08;;;;;;;5.67;2.20;;;;;;;;;;5028843;28;20239;-67
2022/10/30 02:50:40;;;;;;;8.57;2.43;;;;;;;;;;5044026;28;20223;-67
2022/10/30 02:53:07;;;;;;;4.17;2.17;;;;;;;;;;5028636;28;20191;-67
2022/10/30 02:55:33;;;;;;;5.53;2.17;;;;;;;;;;5027539;28;20669;-67
2022/10/30 02:58:00;;;;;;;10.47;2.33;;;;;;;;;;5027614;28;20191;-67
2022/10/30 03:00:29;;;;;;;5.73;2.10;;;;;;;;;;5028778;28;20934;-67
2022/10/30 03:02:56;;;;;;;5.47;2.00;;;;;;;;;;5015195;28;20188;-67
2022/10/30 03:05:23;;;;;;;7.47;2.13;;;;;;;;;;5031027;28;20195;-67
2022/10/30 03:08:07;;;;;;;5.87;2.30;;;;;;;;;;5033564;28;20678;-67
2022/10/30 03:10:33;;;;;;;5.33;2.00;;;;;;;;;;5031423;28;20222;-67
2022/10/30 03:13:00;;;;;;;7.77;2.90;;;;;;;;;;5032598;28;20558;-68
2022/10/30 03:15:26;;;;;;;6.00;2.10;;;;;;;;;;5030857;28;20191;-67
2022/10/30 03:17:53;;;;;;;6.53;2.03;;;;;;;;;;5032496;28;20175;-67
2022/10/30 03:20:20;;;;;;;7.43;2.50;;;;;;;;;;5030843;28;20230;-67
2022/10/30 03:22:46;;;;;;;5.03;2.33;;;;;;;;;;5030866;28;20619;-67
2022/10/30 03:25:13;;;;;;;5.63;2.50;;;;;;;;;;5032235;28;20195;-67
2022/10/30 03:27:40;;;;;;;5.47;2.40;;;;;;;;;;5032281;28;20686;-67
2022/10/30 03:30:07;;;;;;;11.10;2.90;;;;;;;;;;5030724;28;20246;-67
2022/10/30 03:32:33;;;;;;;4.73;2.40;;;;;;;;;;5030973;28;20815;-67
2022/10/30 03:35:00;;;;;;;10.27;3.57;;;;;;;;;;5030918;28;20191;-67
2022/10/30 03:37:27;;;;;;;3.57;2.30;;;;;;;;;;5031729;28;20191;-67
2022/10/30 03:39:53;;;;;;;9.50;2.67;;;;;;;;;;5030670;28;20195;-67
2022/10/30 03:42:20;;;;;;;4.93;2.30;;;;;;;;;;5030742;28;20601;-67
2022/10/30 03:44:50;;;;;;;8.40;2.83;;;;;;;;;;5030520;28;20230;-67
2022/10/30 03:47:16;;;;;;;9.53;2.50;;;;;;;;;;5030645;28;20219;-67
2022/10/30 03:49:44;;;;;;;5.30;2.67;;;;;;;;;;5029766;28;20773;-67
2022/10/30 03:52:16;;;;;;;6.87;2.40;;;;;;;;;;5030262;28;20199;-67
2022/10/30 03:54:42;;;;;;;7.53;2.73;;;;;;;;;;5030607;28;20190;-67
2022/10/30 03:57:12;;;;;;;4.97;2.73;;;;;;;;;;5030419;28;20191;-67
2022/10/30 03:59:48;;;;;;;7.63;2.43;;;;;;;;;;5030279;28;20230;-66
2022/10/30 04:02:28;;;;;;;5.87;2.47;;;;;;;;;;5031412;28;20295;-67
2022/10/30 04:04:54;;;;;;;8.80;2.27;;;;;;;;;;5046231;28;20195;-67
2022/10/30 04:07:21;;;;;;;8.30;2.50;;;;;;;;;;5049902;28;20214;-67
2022/10/30 04:09:50;;;;;;;9.20;2.73;;;;;;;;;;5049873;28;20678;-67
2022/10/30 04:12:17;;;;;;;6.23;2.50;;;;;;;;;;5049329;28;20195;-67
2022/10/30 04:14:44;;;;;;;7.20;2.37;;;;;;;;;;5050332;28;20215;-67
2022/10/30 04:17:10;;;;;;;6.40;2.30;;;;;;;;;;5051480;28;20187;-67
2022/10/30 04:19:37;;;;;;;8.40;3.10;;;;;;;;;;5050174;28;20198;-67
2022/10/30 04:22:03;;;;;;;6.03;2.70;;;;;;;;;;5049647;28;20191;-67
2022/10/30 04:24:31;;;;;;;7.90;2.97;;;;;;;;;;5050024;28;20832;-67
2022/10/30 04:26:58;;;;;;;5.27;2.33;;;;;;;;;;5049536;28;20301;-67
2022/10/30 04:29:25;;;;;;;4.83;2.47;;;;;;;;;;5049437;28;20260;-67
2022/10/30 04:31:52;;;;;;;3.87;2.27;;;;;;;;;;5049864;28;20206;-67
2022/10/30 04:34:19;;;;;;;8.30;2.43;;;;;;;;;;5045678;28;20206;-67
2022/10/30 04:36:46;;;;;;;6.57;2.20;;;;;;;;;;5030448;28;20191;-67
2022/10/30 04:39:12;;;;;;;7.00;2.60;;;;;;;;;;5029647;28;20619;-67
2022/10/30 04:41:40;;;;;;;4.67;1.90;;;;;;;;;;5029518;28;20217;-67
2022/10/30 04:44:14;;;;;;;6.23;2.07;;;;;;;;;;5029857;28;20727;-67
2022/10/30 04:46:41;;;;;;;6.53;2.20;;;;;;;;;;5029819;28;20326;-67
2022/10/30 04:49:09;;;;;;;3.60;1.90;;;;;;;;;;5029180;28;20272;-67
2022/10/30 04:51:35;;;;;;;4.77;2.40;;;;;;;;;;5041915;28;20652;-67
2022/10/30 04:54:04;;;;;;;7.50;2.40;;;;;;;;;;5049258;28;20198;-67
2022/10/30 04:56:34;;;;;;;7.93;3.70;;;;;;;;;;5043931;28;20211;-66
2022/10/30 04:59:01;;;;;;;7.97;3.63;;;;;;;;;;5029507;28;20195;-66
2022/10/30 05:01:28;;;;;;;10.10;3.30;;;;;;;;;;5012463;28;20196;-66
2022/10/30 05:03:57;;;;;;;7.17;2.90;;;;;;;;;;5033013;28;20261;-67
2022/10/30 05:06:25;;;;;;;5.10;2.30;;;;;;;;;;5028835;28;20367;-66
2022/10/30 05:08:54;;;;;;;7.03;2.80;;;;;;;;;;5028801;28;20208;-66
2022/10/30 05:11:30;;;;;;;5.03;2.53;;;;;;;;;;5030233;28;20203;-66
2022/10/30 05:13:57;;;;;;;5.83;2.60;;;;;;;;;;5029054;28;20195;-66
2022/10/30 05:16:24;;;;;;;5.50;2.73;;;;;;;;;;5048588;28;20646;-66
2022/10/30 05:18:51;;;;;;;6.50;2.80;;;;;;;;;;5050304;28;20203;-66
2022/10/30 05:21:18;;;;;;;5.23;2.40;;;;;;;;;;5048722;28;20202;-66
2022/10/30 05:23:45;;;;;;;4.63;2.90;;;;;;;;;;5048257;28;20209;-66
2022/10/30 05:26:11;;;;;;;8.47;2.93;;;;;;;;;;5048924;28;20199;-68
2022/10/30 05:28:39;;;;;;;9.23;2.63;;;;;;;;;;5048752;28;20234;-66
2022/10/30 05:31:05;;;;;;;7.07;2.77;;;;;;;;;;5035815;28;20223;-66
2022/10/30 05:33:55;;;;;;;6.43;2.60;;;;;;;;;;5026984;28;20231;-66
2022/10/30 05:36:23;;;;;;;9.70;3.53;;;;;;;;;;5042725;28;20205;-66
2022/10/30 05:38:50;;;;;;;9.60;2.90;;;;;;;;;;5043237;28;20195;-66
2022/10/30 05:41:27;;;;;;;9.40;3.07;;;;;;;;;;5037619;28;20206;-66
2022/10/30 05:43:54;;;;;;;5.33;2.43;;;;;;;;;;5032899;28;20198;-66
2022/10/30 05:46:21;;;;;;;7.53;2.87;;;;;;;;;;5027123;28;20190;-67
2022/10/30 05:48:47;;;;;;;5.30;2.70;;;;;;;;;;5027755;28;20223;-66
2022/10/30 05:51:14;;;;;;;9.73;3.10;;;;;;;;;;5027847;28;20203;-66
2022/10/30 05:53:49;;;;;;;9.37;3.17;;;;;;;;;;5027852;28;20248;-67
2022/10/30 05:56:18;;;;;;;6.17;2.70;;;;;;;;;;5040164;28;20196;-67
2022/10/30 05:58:47;;;;;;;7.87;3.33;;;;;;;;;;5012292;28;20187;-67
2022/10/30 06:01:13;;;;;;;8.60;2.70;;;;;;;;;;5032437;28;20191;-67
2022/10/30 06:03:43;;;;;;;7.63;2.67;;;;;;;;;;5043532;28;20196;-68
2022/10/30 06:06:11;;;;;;;7.50;2.80;;;;;;;;;;5036634;28;20199;-67
2022/10/30 06:08:37;;;;;;;13.77;3.03;;;;;;;;;;5043204;28;20211;-68
2022/10/30 06:11:23;;;;;;;8.20;2.90;;;;;;;;;;5043585;28;20543;-67
2022/10/30 06:13:53;;;;;;;5.67;3.10;;;;;;;;;;5027965;28;20191;-67
2022/10/30 06:16:30;;;;;;;9.00;3.57;;;;;;;;;;5028414;28;20195;-67
2022/10/30 06:19:18;;;;;;;6.83;3.30;;;;;;;;;;5040173;28;20286;-67
2022/10/30 06:21:48;;;;;;;6.70;3.40;;;;;;;;;;5027656;28;20206;-68
2022/10/30 06:24:24;;;;;;;8.57;3.67;;;;;;;;;;5031831;28;20657;-67
2022/10/30 06:27:08;;;;;;;7.33;3.53;;;;;;;;;;5027819;28;20207;-67
2022/10/30 06:29:35;;;;;;;10.40;3.90;;;;;;;;;;5038638;28;20210;-68
2022/10/30 06:32:01;;;;;;;6.67;3.33;;;;;;;;;;5032215;28;20242;-67
2022/10/30 06:34:33;;;;;;;12.27;3.77;;;;;;;;;;5031931;28;20191;-67
2022/10/30 06:37:02;;;;;;;6.93;3.67;;;;;;;;;;5038416;28;20524;-67
2022/10/30 06:39:47;;;;;;;8.73;3.83;;;;;;;;;;5045362;28;20232;-67
2022/10/30 06:42:32;;;;;;;7.43;3.80;;;;;;;;;;5034223;28;20207;-68
2022/10/30 06:45:34;;;;;;;9.27;4.40;;;;;;;;;;5033403;28;20187;-68
2022/10/30 06:48:01;;;;;;;6.63;4.03;;;;;;;;;;5042214;28;20238;-67
2022/10/30 06:50:33;;;;;;;9.63;4.10;;;;;;;;;;5045572;28;20857;-68
2022/10/30 06:52:59;;;;;;;10.77;4.00;;;;;;;;;;5032423;28;20196;-67
2022/10/30 06:55:27;;;;;;;12.37;4.87;;;;;;;;;;5034101;28;20195;-67
2022/10/30 06:58:08;;;;;;;9.30;4.47;;;;;;;;;;5042578;28;20546;-68
2022/10/30 07:00:45;;;;;;;7.27;4.23;;;;;;;;;;5041444;28;20253;-68
2022/10/30 07:03:51;;;;;;;9.67;4.27;;;;;;;;;;5009366;28;20248;-69
2022/10/30 07:06:18;;;;;;;8.37;4.60;;;;;;;;;;4996665;28;20291;-70
2022/10/30 07:08:46;;;;;;;15.97;4.93;;;;;;;;;;5023285;28;20230;-70
2022/10/30 07:11:13;;;;;;;8.97;4.83;;;;;;;;;;5046223;28;20191;-69
2022/10/30 07:13:40;;;;;;;7.80;4.50;;;;;;;;;;5052019;28;20549;-69
2022/10/30 07:16:27;;;;;;;8.37;4.20;;;;;;;;;;5051913;28;20210;-68
2022/10/30 07:18:55;;;;;;;8.87;4.00;;;;;;;;;;5049508;28;20288;-69
2022/10/30 07:21:27;;;;;;;10.83;4.53;;;;;;;;;;5052568;28;20236;-69
2022/10/30 07:23:54;;;;;;;9.97;4.33;;;;;;;;;;5049655;28;20194;-70
2022/10/30 07:26:32;;;;;;;10.90;4.63;;;;;;;;;;5033269;28;20243;-69
2022/10/30 07:29:05;;;;;;;10.47;5.17;;;;;;;;;;5044842;28;20222;-69
2022/10/30 07:31:44;;;;;;;8.37;4.73;;;;;;;;;;5048633;28;20210;-72
2022/10/30 07:34:47;;;;;;;7.77;4.93;;;;;;;;;;5039827;28;20209;-67
2022/10/30 07:37:33;;;;;;;8.80;4.13;;;;;;;;;;5029123;28;20200;-70
2022/10/30 07:40:05;;;;;;;8.77;4.67;;;;;;;;;;5056092;28;20203;-70
2022/10/30 07:43:09;;;;;;;8.87;3.87;;;;;;;;;;5049781;28;20195;-71
2022/10/30 07:45:44;;;;;;;10.40;4.37;;;;;;;;;;5042271;28;20305;-70
2022/10/30 07:48:30;;;;;;;6.63;4.00;;;;;;;;;;5051104;28;20240;-68
2022/10/30 07:51:02;;;;;;;7.70;3.83;;;;;;;;;;5057566;28;20193;-71
2022/10/30 07:53:30;;;;;;;6.53;3.73;;;;;;;;;;5033410;28;20203;-68
2022/10/30 07:55:57;;;;;;;7.73;3.80;;;;;;;;;;5035039;28;20209;-70
2022/10/30 07:58:53;;;;;;;6.97;3.43;;;;;;;;;;5004446;28;20211;-69
2022/10/30 08:01:36;;;;;;;7.20;3.70;;;;;;;;;;5030597;28;20203;-68
2022/10/30 08:04:26;;;;;;;6.77;3.47;;;;;;;;;;5039225;28;20252;-68
2022/10/30 08:06:58;;;;;;;8.30;3.47;;;;;;;;;;5051166;28;20199;-67
2022/10/30 08:09:25;;;;;;;6.47;3.03;;;;;;;;;;5049113;28;20226;-69
2022/10/30 08:11:51;;;;;;;9.83;3.00;;;;;;;;;;5050414;28;20662;-67
2022/10/30 08:14:18;;;;;;;7.90;2.83;;;;;;;;;;5049235;28;20209;-68
2022/10/30 08:16:45;;;;;;;6.77;3.03;;;;;;;;;;5043854;28;20188;-68
2022/10/30 08:19:12;;;;;;;6.23;2.90;;;;;;;;;;5047958;28;20198;-68
2022/10/30 08:21:40;;;;;;;4.57;2.87;;;;;;;;;;5042415;28;20651;-68
2022/10/30 08:24:12;;;;;;;6.80;2.93;;;;;;;;;;5036936;28;20201;-68
2022/10/30 08:26:41;;;;;;;4.80;2.30;;;;;;;;;;5036883;28;20199;-67
2022/10/30 08:29:09;;;;;;;4.53;2.53;;;;;;;;;;5048474;28;20211;-67
2022/10/30 08:31:37;;;;;;;7.83;2.30;;;;;;;;;;5039489;28;20234;-68
2022/10/30 08:34:22;;;;;;;6.27;2.00;;;;;;;;;;5037997;28;20183;-69
2022/10/30 08:36:53;;;;;;;4.10;2.40;;;;;;;;;;5047204;28;20183;-68
2022/10/30 08:39:20;;;;;;;6.00;2.13;;;;;;;;;;5037681;28;20209;-69
2022/10/30 08:41:56;;;;;;;3.73;2.20;;;;;;;;;;5043775;28;20195;-68
2022/10/30 08:44:25;;;;;;;6.77;2.53;;;;;;;;;;5031691;28;20662;-68
2022/10/30 08:47:10;;;;;;;5.27;2.30;;;;;;;;;;5032270;28;20228;-67
2022/10/30 08:49:38;;;;;;;4.60;2.10;;;;;;;;;;5031006;28;20251;-67
2022/10/30 08:52:08;;;;;;;4.17;2.13;;;;;;;;;;5031383;28;20207;-67
2022/10/30 08:54:34;;;;;;;5.97;2.40;;;;;;;;;;5047128;28;20200;-67
2022/10/30 08:57:01;;;;;;;5.40;1.93;;;;;;;;;;5042352;28;20244;-67
2022/10/30 08:59:28;;;;;;;5.10;2.00;;;;;;;;;;5049576;28;20201;-67
2022/10/30 09:01:57;;;;;;;6.80;2.20;;;;;;;;;;5040330;28;20208;-67
2022/10/30 09:04:46;;;;;;;5.37;2.20;;;;;;;;;;5016444;28;20253;-68
2022/10/30 09:07:15;;;;;;;4.53;1.87;;;;;;;;;;5047051;28;20246;-68
2022/10/30 09:10:29;;;;;;;4.40;1.80;;;;;;;;;;4994141;28;20211;-67
2022/10/30 09:12:56;;;;;;;5.77;2.00;;;;;;;;;;5045315;28;20198;-67
2022/10/30 09:15:23;;;;;;;5.17;1.73;;;;;;;;;;5034936;28;20194;-67
2022/10/30 09:18:00;;;;;;;6.90;2.40;;;;;;;;;;5040388;28;20190;-67
2022/10/30 09:20:28;;;;;;;4.27;2.30;;;;;;;;;;5030024;28;20199;-67
2022/10/30 09:22:55;;;;;;;4.20;2.03;;;;;;;;;;5045190;28;20290;-67
2022/10/30 09:25:26;;;;;;;5.20;2.33;;;;;;;;;;5033309;28;20278;-67
2022/10/30 09:28:21;;;;;;;2.90;1.60;;;;;;;;;;5033567;28;20566;-67
2022/10/30 09:31:06;;;;;;;4.33;2.17;;;;;;;;;;5041880;28;20207;-67
2022/10/30 09:33:36;;;;;;;4.83;1.90;;;;;;;;;;5044161;28;20280;-67
2022/10/30 09:36:29;;;;;;;5.50;1.90;;;;;;;;;;5031492;28;20291;-67
2022/10/30 09:38:55;;;;;;;4.67;2.20;;;;;;;;;;5047149;28;20230;-67
2022/10/30 09:41:28;;;;;;;5.30;2.17;;;;;;;;;;5042947;28;20188;-68
2022/10/30 09:44:00;;;;;;;4.50;2.00;;;;;;;;;;5044661;28;20198;-68
2022/10/30 09:46:27;;;;;;;7.60;2.50;;;;;;;;;;5014831;28;20237;-68
2022/10/30 09:48:57;;;;;;;6.90;2.70;;;;;;;;;;5040672;28;20233;-67
2022/10/30 09:51:44;;;;;;;7.10;2.47;;;;;;;;;;5031577;28;20237;-68
2022/10/30 09:54:15;;;;;;;8.83;3.93;;;;;;;;;;5046270;28;20203;-68
2022/10/30 09:56:52;;;;;;;9.17;4.07;;;;;;;;;;5037039;28;20210;-68
2022/10/30 09:59:29;;;;;;;11.43;4.63;;;;;;;;;;5043184;28;20187;-68
2022/10/30 10:02:03;;;;;;;7.73;3.40;;;;;;;;;;5034514;28;20204;-68
2022/10/30 10:04:38;;;;;;;7.70;3.93;;;;;;;;;;5028759;28;20281;-67
2022/10/30 10:07:32;;;;;;;7.30;3.37;;;;;;;;;;5045066;28;20686;-68
2022/10/30 10:10:33;;;;;;;5.63;2.83;;;;;;;;;;5010657;28;20206;-68
2022/10/30 10:13:06;;;;;;;5.10;3.10;;;;;;;;;;5028904;28;20237;-68
2022/10/30 10:15:54;;;;;;;7.33;3.43;;;;;;;;;;5036340;28;20525;-68
2022/10/30 10:18:25;;;;;;;5.27;2.40;;;;;;;;;;5035778;28;20199;-68
2022/10/30 10:20:52;;;;;;;5.60;2.60;;;;;;;;;;5043138;28;20551;-68
2022/10/30 10:23:26;;;;;;;5.67;2.50;;;;;;;;;;5049694;28;20183;-67
2022/10/30 10:25:53;;;;;;;6.40;2.97;;;;;;;;;;5046393;28;20263;-56
2022/10/30 10:28:23;;;;;;;30.20;4.47;;;;;;;;;;5037843;28;20260;-56
2022/10/30 10:31:10;;;;;;;88.37;10.87;;;;;;;;;;5039070;28;20286;-56
2022/10/30 10:33:43;;;;;;;5.47;2.43;;;;;;;;;;5030711;28;20192;-68
2022/10/30 10:36:25;;;;;;;6.77;2.50;;;;;;;;;;5028729;28;20226;-68
2022/10/30 10:38:52;;;;;;;4.50;2.17;;;;;;;;;;5037549;28;20187;-67
2022/10/30 10:41:37;;;;;;;5.10;2.30;;;;;;;;;;5035645;28;20249;-70
2022/10/30 10:44:10;;;;;;;8.30;2.50;;;;;;;;;;5034299;28;20198;-68
2022/10/30 10:46:55;;;;;;;3.80;2.17;;;;;;;;;;5033468;28;20224;-68
2022/10/30 10:49:23;;;;;;;7.00;2.10;;;;;;;;;;5042252;28;20237;-68
2022/10/30 10:51:54;;;;;;;6.83;2.60;;;;;;;;;;5034318;28;20187;-68
2022/10/30 10:54:39;;;;;;;6.07;2.47;;;;;;;;;;5035703;28;20191;-68
2022/10/30 10:57:06;;;;;;;8.40;2.70;;;;;;;;;;5033981;28;20196;-68
2022/10/30 10:59:33;;;;;;;7.07;2.70;;;;;;;;;;5027933;28;20195;-70
2022/10/30 11:02:18;;;;;;;5.67;2.80;;;;;;;;;;5045806;28;20205;-70
2022/10/30 11:04:48;;;;;;;8.27;3.40;;;;;;;;;;5048244;28;20214;-70
2022/10/30 11:07:45;;;;;;;6.80;3.23;;;;;;;;;;5031454;28;20190;-69
2022/10/30 11:10:13;;;;;;;8.80;3.67;;;;;;;;;;5030449;28;20234;-71
2022/10/30 11:12:40;;;;;;;6.50;3.17;;;;;;;;;;5047799;28;20205;-70
2022/10/30 11:15:07;;;;;;;9.73;3.50;;;;;;;;;;5046907;28;20192;-69
2022/10/30 11:17:35;;;;;;;5.40;3.40;;;;;;;;;;5047795;28;20197;-69
2022/10/30 11:20:11;;;;;;;8.43;3.20;;;;;;;;;;5047382;28;20197;-72
2022/10/30 11:22:39;;;;;;;6.03;3.13;;;;;;;;;;5053130;28;20196;-72
2022/10/30 11:25:22;;;;;;;4.47;3.03;;;;;;;;;;5055799;28;20693;-72
2022/10/30 11:27:56;;;;;;;7.93;3.30;;;;;;;;;;5047647;28;20622;-74
2022/10/30 11:30:24;;;;;;;5.93;3.10;;;;;;;;;;5051661;28;20268;-75
2022/10/30 11:32:52;;;;;;;4.07;2.83;;;;;;;;;;5049284;28;20278;-76
2022/10/30 11:35:22;;;;;;;7.87;2.90;;;;;;;;;;5052653;28;20257;-76
2022/10/30 11:37:50;;;;;;;6.23;3.10;;;;;;;;;;5055797;28;20805;-75
2022/10/30 11:40:20;;;;;;;5.50;3.10;;;;;;;;;;5052209;28;20547;-73
2022/10/30 11:42:56;;;;;;;6.13;3.27;;;;;;;;;;5037701;28;20194;-72
2022/10/30 11:45:24;;;;;;;5.57;3.47;;;;;;;;;;5026794;28;20813;-71
2022/10/30 11:47:51;;;;;;;6.57;3.80;;;;;;;;;;5043562;28;20226;-73
2022/10/30 11:50:21;;;;;;;5.07;3.20;;;;;;;;;;5043567;28;20637;-73
2022/10/30 11:52:48;;;;;;;7.50;3.30;;;;;;;;;;5038910;28;20184;-73
2022/10/30 11:55:15;;;;;;;5.63;4.30;;;;;;;;;;5054843;28;20693;-71
2022/10/30 11:57:43;;;;;;;7.83;4.53;;;;;;;;;;5055561;28;20206;-70
2022/10/30 12:00:15;;;;;;;7.00;3.90;;;;;;;;;;5052079;28;20725;-72
2022/10/30 12:02:43;;;;;;;7.07;4.00;;;;;;;;;;5014009;28;20215;-73
2022/10/30 12:05:36;;;;;;;7.87;4.27;;;;;;;;;;5027736;28;20211;-72
2022/10/30 12:08:07;;;;;;;8.07;4.83;;;;;;;;;;5031682;28;20249;-72
2022/10/30 12:10:37;;;;;;;10.83;5.60;;;;;;;;;;5031346;28;20230;-76
2022/10/30 12:13:04;;;;;;;9.40;5.77;;;;;;;;;;5030415;28;20208;-73
2022/10/30 12:15:31;;;;;;;10.27;6.03;;;;;;;;;;5036259;28;20191;-74
2022/10/30 12:17:59;;;;;;;9.27;5.60;;;;;;;;;;5027812;28;20229;-74
2022/10/30 12:20:26;;;;;;;9.30;5.67;;;;;;;;;;5007341;28;20214;-72
2022/10/30 12:22:53;;;;;;;10.17;6.20;;;;;;;;;;5015760;28;20814;-70
2022/10/30 12:25:19;;;;;;;13.67;6.87;;;;;;;;;;5026105;28;20196;-72
2022/10/30 12:27:46;;;;;;;13.27;7.30;;;;;;;;;;5024893;28;20830;-74
2022/10/30 12:30:16;;;;;;;11.50;5.77;;;;;;;;;;5029385;28;20231;-71
2022/10/30 12:33:02;;;;;;;9.93;5.73;;;;;;;;;;5029855;28;20218;-72
2022/10/30 12:35:29;;;;;;;9.27;5.93;;;;;;;;;;5024832;28;20204;-72
2022/10/30 12:37:55;;;;;;;10.73;5.57;;;;;;;;;;5030721;28;20280;-72
2022/10/30 12:40:24;;;;;;;7.87;5.40;;;;;;;;;;5033065;28;20184;-70
2022/10/30 12:42:57;;;;;;;9.47;5.40;;;;;;;;;;5029772;28;20241;-74
2022/10/30 12:45:35;;;;;;;7.70;4.93;;;;;;;;;;5021530;28;20270;-72
2022/10/30 12:48:16;;;;;;;10.10;5.77;;;;;;;;;;5027072;28;20253;-71
2022/10/30 12:50:48;;;;;;;10.00;5.07;;;;;;;;;;5025160;28;20292;-69
2022/10/30 12:53:33;;;;;;;12.43;5.90;;;;;;;;;;5029773;28;20196;-69
2022/10/30 12:56:01;;;;;;;8.83;5.40;;;;;;;;;;5032477;28;20195;-69
2022/10/30 12:58:40;;;;;;;11.20;5.80;;;;;;;;;;5029280;28;20194;-68
2022/10/30 13:01:10;;;;;;;10.30;5.23;;;;;;;;;;5014210;28;20710;-71
2022/10/30 13:03:37;;;;;;;7.30;5.13;;;;;;;;;;5029193;28;20786;-74
2022/10/30 13:06:12;;;;;;;8.70;5.23;;;;;;;;;;5031657;28;20252;-72
2022/10/30 13:08:45;;;;;;;12.37;5.40;;;;;;;;;;5031523;28;20269;-73
2022/10/30 13:11:35;;;;;;;9.07;5.60;;;;;;;;;;5027771;28;20286;-72
2022/10/30 13:14:02;;;;;;;8.97;5.10;;;;;;;;;;5031315;28;20238;-73
2022/10/30 13:16:29;;;;;;;8.30;5.20;;;;;;;;;;5028268;28;20199;-71
2022/10/30 13:18:58;;;;;;;8.27;5.10;;;;;;;;;;5027882;28;20352;-70
2022/10/30 13:21:34;;;;;;;8.97;5.40;;;;;;;;;;5031029;28;20279;-73
2022/10/30 13:24:02;;;;;;;8.90;5.40;;;;;;;;;;5024770;28;20987;-72
2022/10/30 13:26:35;;;;;;;10.73;5.97;;;;;;;;;;5030355;28;20619;-72
2022/10/30 13:29:02;;;;;;;9.33;5.47;;;;;;;;;;5028848;28;20211;-72
2022/10/30 13:31:28;;;;;;;9.70;5.20;;;;;;;;;;5030259;28;20183;-71
2022/10/30 13:33:59;;;;;;;13.40;6.37;;;;;;;;;;5032005;28;20206;-71
2022/10/30 13:36:29;;;;;;;9.60;5.90;;;;;;;;;;5028761;28;20871;-75
2022/10/30 13:38:58;;;;;;;9.93;5.40;;;;;;;;;;5011174;28;20302;-74
2022/10/30 13:41:31;;;;;;;12.03;6.37;;;;;;;;;;5031776;28;20183;-72
2022/10/30 13:44:08;;;;;;;12.33;7.23;;;;;;;;;;5025289;28;20191;-78
2022/10/30 13:46:47;;;;;;;15.07;6.47;;;;;;;;;;5021393;28;20226;-70
2022/10/30 13:49:33;;;;;;;10.90;7.10;;;;;;;;;;5029846;28;20672;-72
2022/10/30 13:52:01;;;;;;;13.97;7.13;;;;;;;;;;5025440;28;20630;-71
2022/10/30 13:54:32;;;;;;;12.97;7.80;;;;;;;;;;5030516;28;20199;-71
2022/10/30 13:57:01;;;;;;;11.00;7.43;;;;;;;;;;5028782;28;20195;-69
2022/10/30 13:59:37;;;;;;;11.73;7.37;;;;;;;;;;5024219;28;20222;-69
2022/10/30 14:02:09;;;;;;;12.90;7.57;;;;;;;;;;5017900;28;20276;-70
2022/10/30 14:04:48;;;;;;;14.60;8.33;;;;;;;;;;5025647;28;20206;-70
2022/10/30 14:07:20;;;;;;;12.60;8.07;;;;;;;;;;5028320;28;20186;-69
2022/10/30 14:09:53;;;;;;;17.07;9.63;;;;;;;;;;5027729;28;20211;-71
2022/10/30 14:12:38;;;;;;;15.60;9.67;;;;;;;;;;5027013;28;20281;-68
2022/10/30 14:15:05;;;;;;;14.37;9.40;;;;;;;;;;5027919;28;20302;-69
2022/10/30 14:17:32;;;;;;;14.93;9.43;;;;;;;;;;5027568;28;20238;-70
2022/10/30 14:20:05;;;;;;;13.50;7.97;;;;;;;;;;5026882;28;20271;-70
2022/10/30 14:22:39;;;;;;;13.60;8.07;;;;;;;;;;5017573;28;20598;-70
2022/10/30 14:25:23;;;;;;;13.13;8.13;;;;;;;;;;5017354;28;20180;-70
2022/10/30 14:27:53;;;;;;;14.37;7.63;;;;;;;;;;5028944;28;20207;-72
2022/10/30 14:30:20;;;;;;;15.27;8.53;;;;;;;;;;5023459;28;20250;-71
2022/10/30 14:32:48;;;;;;;14.80;8.33;;;;;;;;;;5025725;28;20195;-70
2022/10/30 14:35:31;;;;;;;20.50;12.80;;;;;;;;;;5009643;28;20199;-69
2022/10/30 14:38:07;;;;;;;16.87;10.57;;;;;;;;;;5021560;28;20199;-70
2022/10/30 14:40:52;;;;;;;13.83;9.00;;;;;;;;;;5031342;28;20264;-70
2022/10/30 14:43:25;;;;;;;14.27;9.07;;;;;;;;;;5022570;28;20626;-70
2022/10/30 14:45:53;;;;;;;15.17;8.83;;;;;;;;;;5025669;28;20278;-70
2022/10/30 14:48:25;;;;;;;15.60;8.53;;;;;;;;;;5017237;28;20203;-70
2022/10/30 14:50:55;;;;;;;16.00;9.57;;;;;;;;;;5001093;28;20277;-70
2022/10/30 14:53:28;;;;;;;16.33;9.20;;;;;;;;;;5019037;28;20188;-71
2022/10/30 14:55:54;;;;;;;16.30;10.27;;;;;;;;;;5016074;28;20261;-70
2022/10/30 14:58:25;;;;;;;16.07;8.97;;;;;;;;;;5037148;28;20193;-71
2022/10/30 15:01:15;;;;;;;16.03;8.53;;;;;;;;;;5035058;28;20317;-71
2022/10/30 15:03:50;;;;;;;14.13;8.80;;;;;;;;;;5032259;28;20228;-72
2022/10/30 15:06:36;;;;;;;15.53;10.10;;;;;;;;;;5029022;28;20250;-69
2022/10/30 15:09:11;;;;;;;19.60;10.00;;;;;;;;;;5016827;28;20195;-70